createdAt,value
2022-08-25T04:03:05.125Z,100.00
2022-08-25T04:05:33.029Z,100.00
2022-08-25T04:08:03.426Z,100.00
2022-08-25T04:10:31.841Z,100.00
2022-08-25T04:13:01.158Z,100.00
2022-08-25T04:15:30.262Z,100.00
2022-08-25T04:17:58.942Z,100.00
2022-08-25T04:20:28.227Z,100.00
2022-08-25T04:22:55.939Z,100.00
2022-08-25T04:25:23.546Z,100.00
2022-08-25T04:27:51.429Z,100.00
2022-08-25T04:30:19.240Z,100.00
2022-08-25T04:32:48.201Z,100.00
2022-08-25T04:35:16.030Z,100.00
2022-08-25T04:37:45.271Z,100.00
2022-08-25T04:40:13.437Z,100.00
2022-08-25T04:42:41.157Z,100.00
2022-08-25T04:45:09.466Z,100.00
2022-08-25T04:47:40.769Z,100.00
2022-08-25T04:50:09.143Z,100.00
2022-08-25T04:52:38.051Z,100.00
2022-08-25T04:55:07.586Z,100.00
2022-08-25T04:57:35.372Z,100.00
2022-08-25T05:00:03.621Z,100.00
2022-08-25T05:02:31.322Z,100.00
2022-08-25T05:04:59.087Z,100.00
2022-08-25T05:07:27.520Z,100.00
2022-08-25T05:09:55.166Z,100.00
2022-08-25T05:12:24.089Z,100.00
2022-08-25T05:14:53.391Z,100.00
2022-08-25T05:17:21.324Z,100.00
2022-08-25T05:19:50.239Z,100.00
2022-08-25T05:22:17.942Z,100.00
2022-08-25T05:24:47.101Z,100.00
2022-08-25T05:27:14.695Z,100.00
2022-08-25T05:29:44.747Z,100.00
2022-08-25T05:32:12.512Z,100.00
2022-08-25T05:34:40.157Z,100.00
2022-08-25T05:37:11.635Z,100.00
2022-08-25T05:39:39.835Z,100.00
2022-08-25T05:42:07.949Z,100.00
2022-08-25T05:44:35.560Z,100.00
2022-08-25T05:47:04.637Z,100.00
2022-08-25T05:49:32.281Z,100.00
2022-08-25T05:52:00.211Z,100.00
2022-08-25T05:54:27.888Z,100.00
2022-08-25T05:56:55.952Z,100.00
2022-08-25T05:59:23.614Z,100.00
2022-08-25T06:02:08.981Z,100.00
2022-08-25T06:04:41.153Z,100.00
2022-08-25T06:07:09.262Z,100.00
2022-08-25T06:09:38.584Z,100.00
2022-08-25T06:12:07.377Z,100.00
2022-08-25T06:14:35.269Z,100.00
2022-08-25T06:17:03.201Z,100.00
2022-08-25T06:19:31.375Z,100.00
2022-08-25T06:22:00.359Z,100.00
2022-08-25T06:24:29.171Z,100.00
2022-08-25T06:26:57.239Z,100.00
2022-08-25T06:29:25.203Z,100.00
2022-08-25T06:31:53.454Z,100.00
2022-08-25T06:34:23.758Z,100.00
2022-08-25T06:36:52.285Z,100.00
2022-08-25T06:39:21.498Z,100.00
2022-08-25T06:41:52.515Z,100.00
2022-08-25T06:44:20.186Z,100.00
2022-08-25T06:46:47.962Z,100.00
2022-08-25T06:49:18.122Z,100.00
2022-08-25T06:51:45.908Z,100.00
2022-08-25T06:54:13.672Z,100.00
2022-08-25T06:56:43.253Z,100.00
2022-08-25T06:59:11.767Z,100.00
2022-08-25T07:01:39.887Z,100.00
2022-08-25T07:04:12.860Z,100.00
2022-08-25T07:06:41.851Z,100.00
2022-08-25T07:09:11.370Z,100.00
2022-08-25T07:11:39.588Z,100.00
2022-08-25T07:14:10.843Z,100.00
2022-08-25T07:16:39.201Z,100.00
2022-08-25T07:19:09.184Z,100.00
2022-08-25T07:21:41.321Z,100.00
2022-08-25T07:24:11.171Z,100.00
2022-08-25T07:26:42.059Z,100.00
2022-08-25T07:29:13.454Z,100.00
2022-08-25T07:31:41.645Z,100.00
2022-08-25T07:34:27.439Z,100.00
2022-08-25T07:36:57.229Z,100.00
2022-08-25T07:39:26.523Z,100.00
2022-08-25T07:41:56.114Z,100.00
2022-08-25T07:44:27.990Z,100.00
2022-08-25T07:46:56.240Z,100.00
2022-08-25T07:49:35.946Z,100.00
2022-08-25T07:52:07.549Z,100.00
2022-08-25T07:54:38.457Z,100.00
2022-08-25T07:57:09.357Z,100.00
2022-08-25T07:59:40.802Z,100.00
2022-08-25T08:02:17.713Z,100.00
2022-08-25T08:04:48.565Z,100.00
2022-08-25T08:07:19.292Z,100.00
2022-08-25T08:09:53.069Z,100.00
2022-08-25T08:12:24.469Z,100.00
2022-08-25T08:14:54.393Z,100.00
2022-08-25T08:17:23.001Z,100.00
2022-08-25T08:19:50.667Z,100.00
2022-08-25T08:22:18.795Z,100.00
2022-08-25T08:24:54.276Z,100.00
2022-08-25T08:27:23.450Z,100.00
2022-08-25T08:29:53.569Z,100.00
2022-08-25T08:32:23.805Z,100.00
2022-08-25T08:34:59.275Z,100.00
2022-08-25T08:37:27.982Z,100.00
2022-08-25T08:39:55.874Z,100.00
2022-08-25T08:42:42.961Z,100.00
2022-08-25T08:45:31.113Z,100.00
2022-08-25T08:48:23.289Z,100.00
2022-08-25T08:51:02.741Z,100.00
2022-08-25T08:53:46.239Z,100.00
2022-08-25T08:56:17.236Z,100.00
2022-08-25T08:58:50.096Z,100.00
2022-08-25T09:01:26.168Z,100.00
2022-08-25T09:04:00.817Z,100.00
2022-08-25T09:06:33.151Z,99.34
2022-08-25T09:09:06.711Z,100.00
2022-08-25T09:11:49.824Z,99.05
2022-08-25T09:14:34.733Z,99.04
2022-08-25T09:17:11.441Z,99.33
2022-08-25T09:20:18.185Z,99.55
2022-08-25T09:22:56.488Z,99.77
2022-08-25T09:25:52.460Z,99.36
2022-08-25T09:28:26.374Z,97.77
2022-08-25T09:31:01.231Z,98.48
2022-08-25T09:33:33.572Z,98.31
2022-08-25T09:36:09.006Z,97.44
2022-08-25T09:38:37.501Z,97.69
2022-08-25T09:41:07.477Z,97.88
2022-08-25T09:43:37.689Z,97.29
2022-08-25T09:46:13.432Z,95.64
2022-08-25T09:48:48.501Z,94.89
2022-08-25T09:51:27.572Z,94.99
2022-08-25T09:53:57.661Z,94.19
2022-08-25T09:56:28.340Z,93.53
2022-08-25T09:59:03.057Z,93.83
2022-08-25T10:01:32.096Z,91.33
2022-08-25T10:04:06.844Z,90.42
2022-08-25T10:06:48.487Z,90.79
2022-08-25T10:09:26.862Z,90.93
2022-08-25T10:11:57.725Z,91.64
2022-08-25T10:14:34.933Z,91.43
2022-08-25T10:17:16.127Z,90.04
2022-08-25T10:19:45.191Z,89.60
2022-08-25T10:22:22.387Z,88.56
2022-08-25T10:24:49.997Z,88.19
2022-08-25T10:27:28.593Z,88.07
2022-08-25T10:30:18.981Z,88.22
2022-08-25T10:33:10.287Z,84.91
2022-08-25T10:35:52.597Z,85.22
2022-08-25T10:38:35.467Z,86.13
2022-08-25T10:41:22.273Z,86.81
2022-08-25T10:43:58.555Z,87.55
2022-08-25T10:46:34.589Z,88.00
2022-08-25T10:49:07.023Z,87.11
2022-08-25T10:51:53.819Z,86.39
2022-08-25T10:54:31.129Z,85.96
2022-08-25T10:57:08.202Z,85.70
2022-08-25T10:59:58.593Z,85.85
2022-08-25T11:03:11.757Z,84.65
2022-08-25T11:05:44.585Z,84.15
2022-08-25T11:08:18.605Z,82.87
2022-08-25T11:10:50.609Z,83.82
2022-08-25T11:13:26.516Z,84.15
2022-08-25T11:18:51.062Z,82.65
2022-08-25T11:21:23.747Z,82.17
2022-08-25T11:23:59.406Z,81.74
2022-08-25T11:26:36.934Z,82.00
2022-08-25T11:29:12.250Z,81.65
2022-08-25T11:31:43.603Z,80.61
2022-08-25T11:34:14.415Z,81.52
2022-08-25T11:36:50.280Z,82.26
2022-08-25T11:39:34.661Z,82.28
2022-08-25T11:42:14.704Z,82.04
2022-08-25T11:44:53.807Z,82.52
2022-08-25T11:47:41.830Z,81.96
2022-08-25T11:50:30.454Z,81.74
2022-08-25T11:53:04.193Z,80.98
2022-08-25T11:55:52.240Z,78.82
2022-08-25T11:58:35.106Z,78.16
2022-08-25T12:01:04.972Z,77.91
2022-08-25T12:03:53.082Z,77.97
2022-08-25T12:06:33.070Z,75.40
2022-08-25T12:09:22.073Z,74.62
2022-08-25T12:11:54.577Z,74.41
2022-08-25T12:14:52.514Z,75.46
2022-08-25T12:17:25.441Z,75.00
2022-08-25T12:19:59.856Z,73.41
2022-08-25T12:22:51.283Z,72.71
2022-08-25T12:25:33.942Z,73.37
2022-08-25T12:28:11.092Z,74.25
2022-08-25T12:30:47.059Z,72.31
2022-08-25T12:33:29.224Z,72.29
2022-08-25T12:36:00.203Z,69.49
2022-08-25T12:38:34.983Z,68.43
2022-08-25T12:41:10.188Z,68.37
2022-08-25T12:43:42.299Z,69.24
2022-08-25T12:46:36.561Z,68.30
2022-08-25T12:49:12.182Z,67.25
2022-08-25T12:51:51.738Z,66.35
2022-08-25T12:54:25.092Z,65.21
2022-08-25T12:56:58.301Z,64.76
2022-08-25T12:59:35.983Z,63.34
2022-08-25T13:02:52.207Z,62.24
2022-08-25T13:05:46.195Z,61.27
2022-08-25T13:08:38.348Z,61.57
2022-08-25T13:11:20.383Z,63.86
2022-08-25T13:13:53.631Z,62.98
2022-08-25T13:16:29.411Z,64.00
2022-08-25T13:19:01.534Z,60.92
2022-08-25T13:21:31.925Z,61.57
2022-08-25T13:24:06.108Z,61.81
2022-08-25T13:26:38.128Z,61.85
2022-08-25T13:29:20.542Z,61.51
2022-08-25T13:31:57.375Z,62.24
2022-08-25T13:34:34.402Z,62.38
2022-08-25T13:37:24.475Z,62.25
2022-08-25T13:40:07.768Z,60.97
2022-08-25T13:42:39.220Z,59.14
2022-08-25T13:45:14.999Z,57.86
2022-08-25T13:47:45.833Z,56.97
2022-08-25T13:50:21.174Z,56.19
2022-08-25T13:52:54.243Z,55.87
2022-08-25T13:55:27.672Z,57.30
2022-08-25T13:57:59.043Z,57.09
2022-08-25T14:00:32.462Z,57.36
2022-08-25T14:03:03.833Z,58.01
2022-08-25T14:05:42.650Z,58.53
2022-08-25T14:08:32.857Z,57.90
2022-08-25T14:11:14.893Z,58.90
2022-08-25T14:13:46.206Z,59.12
2022-08-25T14:16:19.203Z,59.07
2022-08-25T14:18:52.202Z,58.96
2022-08-25T14:21:25.319Z,58.71
2022-08-25T14:23:54.352Z,57.97
2022-08-25T14:26:22.371Z,57.12
2022-08-25T14:28:50.852Z,56.30
2022-08-25T14:31:25.329Z,56.80
2022-08-25T14:33:58.016Z,55.87
2022-08-25T14:36:27.313Z,57.11
2022-08-25T14:38:57.274Z,55.55
2022-08-25T14:41:26.437Z,55.09
2022-08-25T14:43:54.709Z,56.41
2022-08-25T14:46:24.324Z,57.02
2022-08-25T14:48:57.498Z,56.46
2022-08-25T14:51:25.836Z,56.82
2022-08-25T14:53:58.691Z,57.18
2022-08-25T14:56:27.735Z,56.42
2022-08-25T14:58:57.288Z,56.45
2022-08-25T15:01:30.097Z,57.02
2022-08-25T15:04:04.342Z,57.11
2022-08-25T15:06:32.726Z,56.49
2022-08-25T15:09:08.497Z,57.29
2022-08-25T15:11:36.818Z,58.34
2022-08-25T15:14:10.976Z,59.95
2022-08-25T15:16:42.636Z,60.30
2022-08-25T15:19:14.472Z,60.61
2022-08-25T15:21:44.383Z,60.85
2022-08-25T15:24:17.575Z,59.78
2022-08-25T15:29:26.176Z,59.17
2022-08-25T15:31:53.991Z,59.10
2022-08-25T15:34:24.025Z,59.51
2022-08-25T15:36:52.307Z,59.54
2022-08-25T15:39:20.156Z,59.56
2022-08-25T15:41:49.506Z,59.69
2022-08-25T15:44:17.369Z,59.93
2022-08-25T15:46:47.126Z,59.38
2022-08-25T15:49:20.341Z,60.21
2022-08-25T15:51:54.393Z,60.72
2022-08-25T15:54:23.607Z,60.93
2022-08-25T15:56:56.759Z,61.72
2022-08-25T15:59:25.378Z,62.02
2022-08-25T16:01:54.091Z,62.05
2022-08-25T16:04:22.410Z,61.85
2022-08-25T16:06:52.817Z,62.06
2022-08-25T16:09:22.953Z,61.99
2022-08-25T16:11:56.129Z,62.53
2022-08-25T16:14:24.799Z,63.14
2022-08-25T16:16:52.801Z,62.53
2022-08-25T16:19:20.519Z,62.42
2022-08-25T16:21:48.196Z,61.87
2022-08-25T16:24:17.314Z,62.40
2022-08-25T16:26:48.054Z,62.62
2022-08-25T16:29:16.646Z,63.12
2022-08-25T16:31:44.453Z,63.62
2022-08-25T16:34:12.619Z,63.91
2022-08-25T16:36:40.406Z,63.87
2022-08-25T16:39:10.031Z,64.05
2022-08-25T16:41:39.560Z,63.98
2022-08-25T16:44:11.155Z,64.47
2022-08-25T16:46:41.801Z,63.97
2022-08-25T16:49:13.360Z,64.01
2022-08-25T16:51:43.211Z,63.94
2022-08-25T16:54:30.335Z,64.44
2022-08-25T16:56:59.325Z,64.67
2022-08-25T16:59:27.510Z,64.65
2022-08-25T17:01:55.627Z,64.34
2022-08-25T17:04:29.578Z,64.87
2022-08-25T17:07:01.898Z,64.71
2022-08-25T17:09:30.756Z,64.84
2022-08-25T17:12:01.978Z,64.78
2022-08-25T17:14:30.466Z,64.69
2022-08-25T17:16:58.463Z,64.99
2022-08-25T17:19:26.802Z,65.28
2022-08-25T17:21:55.096Z,65.69
2022-08-25T17:24:29.198Z,65.66
2022-08-25T17:27:01.312Z,65.79
2022-08-25T17:29:29.603Z,65.62
2022-08-25T17:31:58.370Z,66.18
2022-08-25T17:34:27.497Z,65.78
2022-08-25T17:36:56.230Z,65.77
2022-08-25T17:39:25.939Z,66.20
2022-08-25T17:41:54.607Z,65.81
2022-08-25T17:44:23.618Z,65.96
2022-08-25T17:46:51.855Z,66.11
2022-08-25T17:49:19.655Z,66.44
2022-08-25T17:51:47.470Z,66.66
2022-08-25T17:54:15.475Z,66.47
2022-08-25T17:56:43.609Z,66.59
2022-08-25T17:59:11.978Z,66.93
2022-08-25T18:01:42.072Z,67.64
2022-08-25T18:04:17.136Z,67.38
2022-08-25T18:06:46.437Z,67.63
2022-08-25T18:09:15.007Z,67.41
2022-08-25T18:11:43.152Z,67.41
2022-08-25T18:14:11.727Z,67.80
2022-08-25T18:16:42.223Z,68.03
2022-08-25T18:19:10.711Z,68.46
2022-08-25T18:21:52.723Z,68.69
2022-08-25T18:24:20.737Z,69.11
2022-08-25T18:26:51.695Z,68.57
2022-08-25T18:29:20.277Z,68.78
2022-08-25T18:31:51.852Z,69.24
2022-08-25T18:34:21.982Z,69.55
2022-08-25T18:36:49.729Z,70.24
2022-08-25T18:39:36.397Z,70.26
2022-08-25T18:42:06.098Z,70.44
2022-08-25T18:44:34.497Z,70.14
2022-08-25T18:47:07.667Z,71.17
2022-08-25T18:49:36.983Z,71.09
2022-08-25T18:52:05.612Z,71.20
2022-08-25T18:54:33.359Z,71.66
2022-08-25T18:57:04.171Z,71.45
2022-08-25T18:59:35.939Z,71.75
2022-08-25T19:02:05.270Z,71.48
2022-08-25T19:04:33.023Z,72.33
2022-08-25T19:07:01.456Z,72.38
2022-08-25T19:09:31.552Z,72.42
2022-08-25T19:12:00.078Z,72.24
2022-08-25T19:14:27.996Z,72.21
2022-08-25T19:16:57.801Z,72.86
2022-08-25T19:19:28.462Z,72.49
2022-08-25T19:21:58.061Z,72.67
2022-08-25T19:24:28.169Z,72.77
2022-08-25T19:26:56.465Z,73.16
2022-08-25T19:29:24.557Z,73.69
2022-08-25T19:31:53.113Z,74.18
2022-08-25T19:34:28.025Z,73.85
2022-08-25T19:37:02.178Z,74.23
2022-08-25T19:39:33.354Z,74.10
2022-08-25T19:42:01.067Z,75.22
2022-08-25T19:44:32.755Z,75.32
2022-08-25T19:47:03.201Z,74.74
2022-08-25T19:49:34.377Z,75.58
2022-08-25T19:52:10.722Z,75.45
2022-08-25T19:54:40.515Z,76.35
2022-08-25T19:57:13.671Z,75.96
2022-08-25T19:59:56.382Z,78.08
2022-08-25T20:02:29.514Z,77.73
2022-08-25T20:04:59.444Z,77.04
2022-08-25T20:07:31.509Z,77.42
2022-08-25T20:10:04.457Z,77.93
2022-08-25T20:12:32.169Z,78.51
2022-08-25T20:14:59.794Z,78.97
2022-08-25T20:17:28.601Z,79.67
2022-08-25T20:19:58.551Z,78.81
2022-08-25T20:22:27.787Z,78.97
2022-08-25T20:24:58.619Z,81.14
2022-08-25T20:27:32.036Z,81.02
2022-08-25T20:30:02.364Z,80.05
2022-08-25T20:32:31.380Z,79.98
2022-08-25T20:34:59.161Z,81.32
2022-08-25T20:37:27.181Z,80.62
2022-08-25T20:39:55.044Z,81.44
2022-08-25T20:42:24.122Z,82.28
2022-08-25T20:44:53.491Z,82.80
2022-08-25T20:47:22.469Z,83.89
2022-08-25T20:49:50.449Z,84.31
2022-08-25T20:52:19.708Z,84.94
2022-08-25T20:54:49.606Z,84.76
2022-08-25T20:57:25.938Z,85.62
2022-08-25T20:59:55.789Z,85.65
2022-08-25T21:02:24.075Z,85.86
2022-08-25T21:04:51.888Z,86.62
2022-08-25T21:07:20.733Z,87.05
2022-08-25T21:09:52.575Z,87.24
2022-08-25T21:12:22.876Z,87.56
2022-08-25T21:14:51.792Z,87.50
2022-08-25T21:17:21.687Z,87.79
2022-08-25T21:19:49.458Z,87.59
2022-08-25T21:22:17.280Z,88.56
2022-08-25T21:24:45.703Z,87.85
2022-08-25T21:27:13.435Z,90.00
2022-08-25T21:29:44.672Z,89.76
2022-08-25T21:32:24.361Z,89.70
2022-08-25T21:34:53.658Z,90.60
2022-08-25T21:37:21.319Z,90.14
2022-08-25T21:39:49.005Z,90.66
2022-08-25T21:42:16.849Z,90.77
2022-08-25T21:44:44.724Z,92.03
2022-08-25T21:47:12.320Z,91.64
2022-08-25T21:49:41.257Z,91.81
2022-08-25T21:52:09.064Z,91.35
2022-08-25T21:54:37.621Z,91.95
2022-08-25T21:57:07.537Z,91.88
2022-08-25T21:59:37.383Z,92.00
2022-08-25T22:02:07.399Z,91.87
2022-08-25T22:04:36.150Z,92.22
2022-08-25T22:07:05.592Z,92.18
2022-08-25T22:09:33.648Z,92.05
2022-08-25T22:12:02.260Z,92.91
2022-08-25T22:14:29.874Z,92.43
2022-08-25T22:16:57.689Z,92.59
2022-08-25T22:19:25.919Z,93.77
2022-08-25T22:21:54.741Z,92.61
2022-08-25T22:24:28.017Z,93.83
2022-08-25T22:26:56.413Z,92.80
2022-08-25T22:29:25.757Z,92.16
2022-08-25T22:31:54.063Z,94.10
2022-08-25T22:34:30.616Z,94.70
2022-08-25T22:37:00.165Z,95.09
2022-08-25T22:39:29.964Z,93.67
2022-08-25T22:41:58.123Z,95.39
2022-08-25T22:44:26.426Z,95.27
2022-08-25T22:46:54.390Z,96.22
2022-08-25T22:49:22.077Z,97.65
2022-08-25T22:51:49.897Z,97.52
2022-08-25T22:54:18.706Z,97.85
2022-08-25T22:56:47.693Z,98.70
2022-08-25T22:59:15.496Z,97.22
